sensor_id;sensor_type;location;lat;lon;timestamp;temperature;humidity
72883;DHT22;61017;37.812;-122.286;2023-02-28T00:01:02;13.90;68.40
72883;DHT22;61017;37.812;-122.286;2023-02-28T00:02:57;13.90;68.20
72883;DHT22;61017;37.812;-122.286;2023-02-28T00:07:15;13.90;68.30
72883;DHT22;61017;37.812;-122.286;2023-02-28T00:11:37;13.90;68.00
72883;DHT22;61017;37.812;-122.286;2023-02-28T00:18:46;13.80;68.10
72883;DHT22;61017;37.812;-122.286;2023-02-28T00:21:12;13.80;67.90
72883;DHT22;61017;37.812;-122.286;2023-02-28T00:23:15;13.80;68.10
72883;DHT22;61017;37.812;-122.286;2023-02-28T00:25:05;13.80;67.80
72883;DHT22;61017;37.812;-122.286;2023-02-28T00:27:15;13.80;67.50
72883;DHT22;61017;37.812;-122.286;2023-02-28T00:29:25;13.80;67.70
72883;DHT22;61017;37.812;-122.286;2023-02-28T00:31:25;13.80;68.00
72883;DHT22;61017;37.812;-122.286;2023-02-28T00:33:39;13.80;67.60
72883;DHT22;61017;37.812;-122.286;2023-02-28T00:35:10;13.80;67.50
72883;DHT22;61017;37.812;-122.286;2023-02-28T00:37:15;13.80;67.80
72883;DHT22;61017;37.812;-122.286;2023-02-28T00:39:03;13.80;67.00
72883;DHT22;61017;37.812;-122.286;2023-02-28T00:40:44;13.80;67.00
72883;DHT22;61017;37.812;-122.286;2023-02-28T00:42:38;13.70;66.80
72883;DHT22;61017;37.812;-122.286;2023-02-28T00:44:13;13.80;67.20
72883;DHT22;61017;37.812;-122.286;2023-02-28T00:45:47;13.80;67.90
72883;DHT22;61017;37.812;-122.286;2023-02-28T00:47:27;13.80;68.90
72883;DHT22;61017;37.812;-122.286;2023-02-28T00:48:59;13.80;68.30
72883;DHT22;61017;37.812;-122.286;2023-02-28T00:50:30;13.70;66.80
72883;DHT22;61017;37.812;-122.286;2023-02-28T00:52:03;13.70;66.50
72883;DHT22;61017;37.812;-122.286;2023-02-28T00:53:34;13.70;66.30
72883;DHT22;61017;37.812;-122.286;2023-02-28T00:55:13;13.70;66.50
72883;DHT22;61017;37.812;-122.286;2023-02-28T00:56:51;13.70;66.60
72883;DHT22;61017;37.812;-122.286;2023-02-28T00:58:25;13.70;66.50
72883;DHT22;61017;37.812;-122.286;2023-02-28T00:59:57;13.70;66.30
72883;DHT22;61017;37.812;-122.286;2023-02-28T01:01:29;13.70;66.40
72883;DHT22;61017;37.812;-122.286;2023-02-28T01:03:03;13.70;67.10
72883;DHT22;61017;37.812;-122.286;2023-02-28T01:04:37;13.80;67.90
72883;DHT22;61017;37.812;-122.286;2023-02-28T01:06:11;13.90;66.40
72883;DHT22;61017;37.812;-122.286;2023-02-28T01:07:43;14.00;64.50
72883;DHT22;61017;37.812;-122.286;2023-02-28T01:09:15;14.10;63.10
72883;DHT22;61017;37.812;-122.286;2023-02-28T01:10:47;14.20;61.60
72883;DHT22;61017;37.812;-122.286;2023-02-28T01:12:26;14.30;60.50
72883;DHT22;61017;37.812;-122.286;2023-02-28T01:14:01;14.30;61.00
72883;DHT22;61017;37.812;-122.286;2023-02-28T01:15:39;14.20;61.50
72883;DHT22;61017;37.812;-122.286;2023-02-28T01:17:14;14.30;61.30
72883;DHT22;61017;37.812;-122.286;2023-02-28T01:18:48;14.40;59.60
72883;DHT22;61017;37.812;-122.286;2023-02-28T01:20:25;14.50;58.80
72883;DHT22;61017;37.812;-122.286;2023-02-28T01:22:01;14.50;58.00
72883;DHT22;61017;37.812;-122.286;2023-02-28T01:23:32;14.60;57.40
72883;DHT22;61017;37.812;-122.286;2023-02-28T01:25:19;14.60;56.80
72883;DHT22;61017;37.812;-122.286;2023-02-28T01:27:02;14.50;58.10
72883;DHT22;61017;37.812;-122.286;2023-02-28T01:29:01;14.50;59.20
72883;DHT22;61017;37.812;-122.286;2023-02-28T01:30:38;14.60;57.80
72883;DHT22;61017;37.812;-122.286;2023-02-28T01:32:10;14.60;57.00
72883;DHT22;61017;37.812;-122.286;2023-02-28T01:33:45;14.70;56.50
72883;DHT22;61017;37.812;-122.286;2023-02-28T01:35:20;14.70;55.90
72883;DHT22;61017;37.812;-122.286;2023-02-28T01:36:51;14.80;55.40
72883;DHT22;61017;37.812;-122.286;2023-02-28T01:38:29;14.70;56.80
72883;DHT22;61017;37.812;-122.286;2023-02-28T01:40:01;14.50;57.00
72883;DHT22;61017;37.812;-122.286;2023-02-28T01:41:38;14.60;57.30
72883;DHT22;61017;37.812;-122.286;2023-02-28T01:46:12;14.80;55.70
72883;DHT22;61017;37.812;-122.286;2023-02-28T01:50:41;14.80;55.20
72883;DHT22;61017;37.812;-122.286;2023-02-28T01:52:30;14.60;56.70
72883;DHT22;61017;37.812;-122.286;2023-02-28T01:54:08;14.70;56.40
72883;DHT22;61017;37.812;-122.286;2023-02-28T01:55:50;14.80;55.70
72883;DHT22;61017;37.812;-122.286;2023-02-28T01:57:29;14.90;55.00
72883;DHT22;61017;37.812;-122.286;2023-02-28T01:59:08;14.90;54.70
72883;DHT22;61017;37.812;-122.286;2023-02-28T02:00:56;14.90;54.40
72883;DHT22;61017;37.812;-122.286;2023-02-28T02:02:39;14.80;55.30
72883;DHT22;61017;37.812;-122.286;2023-02-28T02:04:18;14.70;56.40
72883;DHT22;61017;37.812;-122.286;2023-02-28T02:05:58;14.60;56.30
72883;DHT22;61017;37.812;-122.286;2023-02-28T02:07:36;14.80;55.40
72883;DHT22;61017;37.812;-122.286;2023-02-28T02:09:08;14.90;55.00
72883;DHT22;61017;37.812;-122.286;2023-02-28T02:13:19;14.90;54.20
72883;DHT22;61017;37.812;-122.286;2023-02-28T02:16:58;14.70;56.40
72883;DHT22;61017;37.812;-122.286;2023-02-28T02:37:54;15.00;53.80
72883;DHT22;61017;37.812;-122.286;2023-02-28T02:41:12;14.80;55.60
72883;DHT22;61017;37.812;-122.286;2023-02-28T02:42:56;14.80;55.30
72883;DHT22;61017;37.812;-122.286;2023-02-28T02:46:51;14.90;53.90
72883;DHT22;61017;37.812;-122.286;2023-02-28T02:48:34;15.00;53.50
72883;DHT22;61017;37.812;-122.286;2023-02-28T02:50:33;15.00;53.20
72883;DHT22;61017;37.812;-122.286;2023-02-28T02:52:18;14.90;54.60
72883;DHT22;61017;37.812;-122.286;2023-02-28T02:54:08;14.70;55.60
72883;DHT22;61017;37.812;-122.286;2023-02-28T02:55:53;14.90;54.60
72883;DHT22;61017;37.812;-122.286;2023-02-28T02:57:57;15.00;54.00
72883;DHT22;61017;37.812;-122.286;2023-02-28T02:59:33;15.00;53.40
72883;DHT22;61017;37.812;-122.286;2023-02-28T03:01:14;15.10;53.10
72883;DHT22;61017;37.812;-122.286;2023-02-28T03:02:48;15.10;52.90
72883;DHT22;61017;37.812;-122.286;2023-02-28T03:04:20;14.90;54.70
72883;DHT22;61017;37.812;-122.286;2023-02-28T03:05:53;14.80;55.50
72883;DHT22;61017;37.812;-122.286;2023-02-28T03:10:39;15.00;54.40
72883;DHT22;61017;37.812;-122.286;2023-02-28T03:17:40;14.90;54.60
72883;DHT22;61017;37.812;-122.286;2023-02-28T03:23:38;15.00;53.60
72883;DHT22;61017;37.812;-122.286;2023-02-28T03:25:18;15.00;53.50
72883;DHT22;61017;37.812;-122.286;2023-02-28T03:36:14;14.50;57.20
72883;DHT22;61017;37.812;-122.286;2023-02-28T03:38:17;14.40;57.70
72883;DHT22;61017;37.812;-122.286;2023-02-28T03:40:31;14.30;58.20
72883;DHT22;61017;37.812;-122.286;2023-02-28T03:44:57;14.30;59.10
72883;DHT22;61017;37.812;-122.286;2023-02-28T03:46:26;14.20;59.60
72883;DHT22;61017;37.812;-122.286;2023-02-28T03:48:23;14.20;60.30
72883;DHT22;61017;37.812;-122.286;2023-02-28T03:50:53;14.20;60.40
72883;DHT22;61017;37.812;-122.286;2023-02-28T03:52:44;14.10;60.50
72883;DHT22;61017;37.812;-122.286;2023-02-28T03:56:51;14.00;61.00
72883;DHT22;61017;37.812;-122.286;2023-02-28T04:00:53;14.00;61.60
72883;DHT22;61017;37.812;-122.286;2023-02-28T04:02:48;14.00;61.80
72883;DHT22;61017;37.812;-122.286;2023-02-28T04:04:25;14.00;61.90
72883;DHT22;61017;37.812;-122.286;2023-02-28T04:06:28;14.00;62.00
72883;DHT22;61017;37.812;-122.286;2023-02-28T04:08:06;14.00;62.30
72883;DHT22;61017;37.812;-122.286;2023-02-28T04:10:12;14.00;62.50
72883;DHT22;61017;37.812;-122.286;2023-02-28T04:14:05;14.00;62.70
72883;DHT22;61017;37.812;-122.286;2023-02-28T04:15:51;14.00;62.70
72883;DHT22;61017;37.812;-122.286;2023-02-28T04:17:28;14.00;62.90
72883;DHT22;61017;37.812;-122.286;2023-02-28T04:19:17;14.00;63.10
72883;DHT22;61017;37.812;-122.286;2023-02-28T04:21:42;14.00;63.40
72883;DHT22;61017;37.812;-122.286;2023-02-28T04:23:53;14.00;63.40
72883;DHT22;61017;37.812;-122.286;2023-02-28T04:27:43;14.00;63.50
72883;DHT22;61017;37.812;-122.286;2023-02-28T04:30:13;14.00;63.40
72883;DHT22;61017;37.812;-122.286;2023-02-28T04:32:07;14.00;63.80
72883;DHT22;61017;37.812;-122.286;2023-02-28T04:35:48;13.90;64.00
72883;DHT22;61017;37.812;-122.286;2023-02-28T04:37:31;13.90;63.90
72883;DHT22;61017;37.812;-122.286;2023-02-28T04:39:03;13.90;64.00
72883;DHT22;61017;37.812;-122.286;2023-02-28T04:41:01;13.90;64.30
72883;DHT22;61017;37.812;-122.286;2023-02-28T04:43:05;13.90;64.50
72883;DHT22;61017;37.812;-122.286;2023-02-28T04:44:54;13.90;64.40
72883;DHT22;61017;37.812;-122.286;2023-02-28T04:46:48;13.90;64.60
72883;DHT22;61017;37.812;-122.286;2023-02-28T04:48:20;13.90;64.50
72883;DHT22;61017;37.812;-122.286;2023-02-28T04:49:57;13.90;64.60
72883;DHT22;61017;37.812;-122.286;2023-02-28T04:51:48;13.90;65.10
72883;DHT22;61017;37.812;-122.286;2023-02-28T04:53:52;13.90;65.10
72883;DHT22;61017;37.812;-122.286;2023-02-28T04:55:30;13.90;65.00
72883;DHT22;61017;37.812;-122.286;2023-02-28T04:57:04;13.90;65.10
72883;DHT22;61017;37.812;-122.286;2023-02-28T04:59:04;13.90;65.00
72883;DHT22;61017;37.812;-122.286;2023-02-28T05:00:42;13.90;65.00
72883;DHT22;61017;37.812;-122.286;2023-02-28T05:02:13;13.90;65.30
72883;DHT22;61017;37.812;-122.286;2023-02-28T05:03:45;13.90;65.50
72883;DHT22;61017;37.812;-122.286;2023-02-28T05:05:22;13.90;65.60
72883;DHT22;61017;37.812;-122.286;2023-02-28T05:06:57;13.90;65.70
72883;DHT22;61017;37.812;-122.286;2023-02-28T05:08:32;13.90;65.40
72883;DHT22;61017;37.812;-122.286;2023-02-28T05:10:32;13.90;66.40
72883;DHT22;61017;37.812;-122.286;2023-02-28T05:12:12;13.90;65.90
72883;DHT22;61017;37.812;-122.286;2023-02-28T05:14:12;13.90;66.00
72883;DHT22;61017;37.812;-122.286;2023-02-28T05:15:52;13.90;65.80
72883;DHT22;61017;37.812;-122.286;2023-02-28T05:17:30;13.90;65.70
72883;DHT22;61017;37.812;-122.286;2023-02-28T05:19:04;13.90;66.00
72883;DHT22;61017;37.812;-122.286;2023-02-28T05:20:36;13.90;66.30
72883;DHT22;61017;37.812;-122.286;2023-02-28T05:22:19;13.90;66.30
72883;DHT22;61017;37.812;-122.286;2023-02-28T05:24:06;13.80;66.00
72883;DHT22;61017;37.812;-122.286;2023-02-28T05:25:38;13.90;65.70
72883;DHT22;61017;37.812;-122.286;2023-02-28T05:27:15;13.80;65.70
72883;DHT22;61017;37.812;-122.286;2023-02-28T05:29:00;13.80;66.10
72883;DHT22;61017;37.812;-122.286;2023-02-28T05:30:37;13.80;66.40
72883;DHT22;61017;37.812;-122.286;2023-02-28T05:32:13;13.80;66.60
72883;DHT22;61017;37.812;-122.286;2023-02-28T05:33:47;13.80;66.60
72883;DHT22;61017;37.812;-122.286;2023-02-28T05:35:25;13.90;66.60
72883;DHT22;61017;37.812;-122.286;2023-02-28T05:37:05;13.80;66.20
72883;DHT22;61017;37.812;-122.286;2023-02-28T05:38:43;13.90;66.30
72883;DHT22;61017;37.812;-122.286;2023-02-28T05:40:26;13.80;66.70
72883;DHT22;61017;37.812;-122.286;2023-02-28T05:42:02;13.80;66.60
72883;DHT22;61017;37.812;-122.286;2023-02-28T05:43:40;13.80;66.80
72883;DHT22;61017;37.812;-122.286;2023-02-28T05:45:12;13.80;66.50
72883;DHT22;61017;37.812;-122.286;2023-02-28T05:46:44;13.80;66.90
72883;DHT22;61017;37.812;-122.286;2023-02-28T05:48:36;13.80;67.00
72883;DHT22;61017;37.812;-122.286;2023-02-28T05:50:11;13.80;67.00
72883;DHT22;61017;37.812;-122.286;2023-02-28T05:51:47;13.80;67.00
72883;DHT22;61017;37.812;-122.286;2023-02-28T05:53:22;13.80;66.90
72883;DHT22;61017;37.812;-122.286;2023-02-28T05:55:02;13.80;67.10
72883;DHT22;61017;37.812;-122.286;2023-02-28T05:56:34;13.80;67.20
72883;DHT22;61017;37.812;-122.286;2023-02-28T05:58:08;13.80;67.00
72883;DHT22;61017;37.812;-122.286;2023-02-28T05:59:40;13.80;66.70
72883;DHT22;61017;37.812;-122.286;2023-02-28T06:02:23;13.80;67.00
72883;DHT22;61017;37.812;-122.286;2023-02-28T06:03:53;13.80;67.60
72883;DHT22;61017;37.812;-122.286;2023-02-28T06:05:54;13.80;67.30
72883;DHT22;61017;37.812;-122.286;2023-02-28T06:07:38;13.70;67.50
72883;DHT22;61017;37.812;-122.286;2023-02-28T06:09:38;13.70;67.10
72883;DHT22;61017;37.812;-122.286;2023-02-28T06:13:47;13.70;67.20
72883;DHT22;61017;37.812;-122.286;2023-02-28T06:15:39;13.70;67.30
72883;DHT22;61017;37.812;-122.286;2023-02-28T06:19:27;13.70;67.40
72883;DHT22;61017;37.812;-122.286;2023-02-28T06:21:42;13.70;67.70
72883;DHT22;61017;37.812;-122.286;2023-02-28T06:25:56;13.70;67.70
72883;DHT22;61017;37.812;-122.286;2023-02-28T06:28:37;13.70;67.90
72883;DHT22;61017;37.812;-122.286;2023-02-28T06:34:58;13.70;67.90
72883;DHT22;61017;37.812;-122.286;2023-02-28T06:37:22;13.70;67.90
72883;DHT22;61017;37.812;-122.286;2023-02-28T06:41:49;13.70;68.00
72883;DHT22;61017;37.812;-122.286;2023-02-28T06:45:37;13.70;68.00
72883;DHT22;61017;37.812;-122.286;2023-02-28T06:47:14;13.70;67.90
72883;DHT22;61017;37.812;-122.286;2023-02-28T06:48:51;13.70;68.00
72883;DHT22;61017;37.812;-122.286;2023-02-28T06:50:52;13.70;68.00
72883;DHT22;61017;37.812;-122.286;2023-02-28T06:52:33;13.70;68.40
72883;DHT22;61017;37.812;-122.286;2023-02-28T06:54:18;13.70;68.00
72883;DHT22;61017;37.812;-122.286;2023-02-28T06:55:55;13.70;68.20
72883;DHT22;61017;37.812;-122.286;2023-02-28T06:57:33;13.70;68.20
72883;DHT22;61017;37.812;-122.286;2023-02-28T07:01:49;13.70;68.20
72883;DHT22;61017;37.812;-122.286;2023-02-28T07:11:46;13.70;68.10
72883;DHT22;61017;37.812;-122.286;2023-02-28T07:14:10;13.70;68.60
72883;DHT22;61017;37.812;-122.286;2023-02-28T07:16:17;13.70;68.20
72883;DHT22;61017;37.812;-122.286;2023-02-28T07:18:02;13.70;68.10
72883;DHT22;61017;37.812;-122.286;2023-02-28T07:24:36;13.70;68.30
72883;DHT22;61017;37.812;-122.286;2023-02-28T07:28:23;13.70;68.80
72883;DHT22;61017;37.812;-122.286;2023-02-28T07:31:57;13.70;68.00
72883;DHT22;61017;37.812;-122.286;2023-02-28T07:33:34;13.70;68.40
72883;DHT22;61017;37.812;-122.286;2023-02-28T07:35:07;13.70;68.10
72883;DHT22;61017;37.812;-122.286;2023-02-28T07:36:47;13.70;68.20
72883;DHT22;61017;37.812;-122.286;2023-02-28T07:39:05;13.70;68.20
72883;DHT22;61017;37.812;-122.286;2023-02-28T07:40:45;13.70;68.10
72883;DHT22;61017;37.812;-122.286;2023-02-28T07:42:19;13.70;68.30
72883;DHT22;61017;37.812;-122.286;2023-02-28T07:43:54;13.70;68.90
72883;DHT22;61017;37.812;-122.286;2023-02-28T07:45:38;13.70;69.10
72883;DHT22;61017;37.812;-122.286;2023-02-28T07:47:32;13.70;68.90
72883;DHT22;61017;37.812;-122.286;2023-02-28T07:49:07;13.70;69.80
72883;DHT22;61017;37.812;-122.286;2023-02-28T07:51:00;13.70;69.60
72883;DHT22;61017;37.812;-122.286;2023-02-28T07:52:34;13.70;68.80
72883;DHT22;61017;37.812;-122.286;2023-02-28T07:54:08;13.70;68.50
72883;DHT22;61017;37.812;-122.286;2023-02-28T07:55:51;13.70;68.40
72883;DHT22;61017;37.812;-122.286;2023-02-28T07:57:28;13.70;69.30
72883;DHT22;61017;37.812;-122.286;2023-02-28T07:59:21;13.70;68.90
72883;DHT22;61017;37.812;-122.286;2023-02-28T08:00:55;13.70;68.20
72883;DHT22;61017;37.812;-122.286;2023-02-28T08:02:36;13.70;68.50
72883;DHT22;61017;37.812;-122.286;2023-02-28T08:04:13;13.70;69.00
72883;DHT22;61017;37.812;-122.286;2023-02-28T08:06:14;13.70;68.40
72883;DHT22;61017;37.812;-122.286;2023-02-28T08:07:51;13.70;69.00
72883;DHT22;61017;37.812;-122.286;2023-02-28T08:11:50;13.70;68.90
72883;DHT22;61017;37.812;-122.286;2023-02-28T08:13:34;13.60;68.70
72883;DHT22;61017;37.812;-122.286;2023-02-28T08:15:12;13.70;69.00
72883;DHT22;61017;37.812;-122.286;2023-02-28T08:18:59;13.60;68.50
72883;DHT22;61017;37.812;-122.286;2023-02-28T08:20:48;13.60;68.50
72883;DHT22;61017;37.812;-122.286;2023-02-28T08:22:22;13.60;68.70
72883;DHT22;61017;37.812;-122.286;2023-02-28T08:23:57;13.60;68.50
72883;DHT22;61017;37.812;-122.286;2023-02-28T08:25:55;13.60;69.00
72883;DHT22;61017;37.812;-122.286;2023-02-28T08:29:23;13.60;69.20
72883;DHT22;61017;37.812;-122.286;2023-02-28T08:31:01;13.60;69.10
72883;DHT22;61017;37.812;-122.286;2023-02-28T08:33:01;13.60;69.10
72883;DHT22;61017;37.812;-122.286;2023-02-28T08:34:38;13.60;68.90
72883;DHT22;61017;37.812;-122.286;2023-02-28T08:36:47;13.60;68.80
72883;DHT22;61017;37.812;-122.286;2023-02-28T08:40:14;13.60;69.20
72883;DHT22;61017;37.812;-122.286;2023-02-28T08:41:48;13.60;69.30
72883;DHT22;61017;37.812;-122.286;2023-02-28T08:43:26;13.60;69.10
72883;DHT22;61017;37.812;-122.286;2023-02-28T08:45:01;13.60;69.50
72883;DHT22;61017;37.812;-122.286;2023-02-28T08:46:35;13.60;69.00
72883;DHT22;61017;37.812;-122.286;2023-02-28T08:48:15;13.60;69.50
72883;DHT22;61017;37.812;-122.286;2023-02-28T08:50:08;13.60;69.60
72883;DHT22;61017;37.812;-122.286;2023-02-28T08:51:57;13.60;69.70
72883;DHT22;61017;37.812;-122.286;2023-02-28T08:53:47;13.60;69.50
72883;DHT22;61017;37.812;-122.286;2023-02-28T09:00:12;13.60;69.70
72883;DHT22;61017;37.812;-122.286;2023-02-28T09:02:24;13.60;69.30
72883;DHT22;61017;37.812;-122.286;2023-02-28T09:04:02;13.60;69.50
72883;DHT22;61017;37.812;-122.286;2023-02-28T09:05:39;13.60;69.30
72883;DHT22;61017;37.812;-122.286;2023-02-28T09:07:17;13.60;69.30
72883;DHT22;61017;37.812;-122.286;2023-02-28T09:08:56;13.60;69.30
72883;DHT22;61017;37.812;-122.286;2023-02-28T09:12:53;13.60;69.70
72883;DHT22;61017;37.812;-122.286;2023-02-28T09:14:25;13.60;69.60
72883;DHT22;61017;37.812;-122.286;2023-02-28T09:16:08;13.60;69.50
72883;DHT22;61017;37.812;-122.286;2023-02-28T09:17:40;13.60;69.60
72883;DHT22;61017;37.812;-122.286;2023-02-28T09:19:12;13.60;70.00
72883;DHT22;61017;37.812;-122.286;2023-02-28T09:20:44;13.60;69.50
72883;DHT22;61017;37.812;-122.286;2023-02-28T09:22:16;13.60;69.40
72883;DHT22;61017;37.812;-122.286;2023-02-28T09:23:54;13.60;69.50
72883;DHT22;61017;37.812;-122.286;2023-02-28T09:25:48;13.60;70.00
72883;DHT22;61017;37.812;-122.286;2023-02-28T09:27:40;13.60;70.20
72883;DHT22;61017;37.812;-122.286;2023-02-28T09:29:14;13.60;69.80
72883;DHT22;61017;37.812;-122.286;2023-02-28T09:30:56;13.60;70.20
72883;DHT22;61017;37.812;-122.286;2023-02-28T09:32:33;13.50;69.50
72883;DHT22;61017;37.812;-122.286;2023-02-28T09:34:07;13.50;69.80
72883;DHT22;61017;37.812;-122.286;2023-02-28T09:35:39;13.60;71.30
72883;DHT22;61017;37.812;-122.286;2023-02-28T09:37:20;13.50;70.50
72883;DHT22;61017;37.812;-122.286;2023-02-28T09:38:58;13.50;70.50
72883;DHT22;61017;37.812;-122.286;2023-02-28T09:40:34;13.50;70.60
72883;DHT22;61017;37.812;-122.286;2023-02-28T09:42:24;13.50;70.00
72883;DHT22;61017;37.812;-122.286;2023-02-28T09:44:33;13.50;70.60
72883;DHT22;61017;37.812;-122.286;2023-02-28T09:46:33;13.50;70.70
72883;DHT22;61017;37.812;-122.286;2023-02-28T09:48:47;13.50;70.70
72883;DHT22;61017;37.812;-122.286;2023-02-28T09:50:41;13.50;70.50
72883;DHT22;61017;37.812;-122.286;2023-02-28T09:52:21;13.50;70.80
72883;DHT22;61017;37.812;-122.286;2023-02-28T09:54:02;13.50;70.80
72883;DHT22;61017;37.812;-122.286;2023-02-28T09:58:01;13.50;70.70
72883;DHT22;61017;37.812;-122.286;2023-02-28T10:06:34;13.50;70.90
72883;DHT22;61017;37.812;-122.286;2023-02-28T10:10:30;13.50;71.00
72883;DHT22;61017;37.812;-122.286;2023-02-28T10:12:08;13.50;71.10
72883;DHT22;61017;37.812;-122.286;2023-02-28T10:15:42;13.50;71.00
72883;DHT22;61017;37.812;-122.286;2023-02-28T10:17:56;13.50;71.10
72883;DHT22;61017;37.812;-122.286;2023-02-28T10:20:07;13.50;71.10
72883;DHT22;61017;37.812;-122.286;2023-02-28T10:24:16;13.50;71.20
72883;DHT22;61017;37.812;-122.286;2023-02-28T10:26:13;13.50;71.00
72883;DHT22;61017;37.812;-122.286;2023-02-28T10:30:02;13.50;71.10
72883;DHT22;61017;37.812;-122.286;2023-02-28T10:31:40;13.50;71.30
72883;DHT22;61017;37.812;-122.286;2023-02-28T10:33:39;13.50;71.20
72883;DHT22;61017;37.812;-122.286;2023-02-28T10:35:26;13.50;71.10
72883;DHT22;61017;37.812;-122.286;2023-02-28T10:37:05;13.50;71.10
72883;DHT22;61017;37.812;-122.286;2023-02-28T10:38:40;13.50;71.10
72883;DHT22;61017;37.812;-122.286;2023-02-28T10:42:28;13.50;71.40
72883;DHT22;61017;37.812;-122.286;2023-02-28T10:44:22;13.50;71.00
72883;DHT22;61017;37.812;-122.286;2023-02-28T10:47:37;13.50;70.60
72883;DHT22;61017;37.812;-122.286;2023-02-28T10:49:21;13.50;70.70
72883;DHT22;61017;37.812;-122.286;2023-02-28T10:50:55;13.50;71.30
72883;DHT22;61017;37.812;-122.286;2023-02-28T10:52:36;13.50;71.10
72883;DHT22;61017;37.812;-122.286;2023-02-28T10:54:24;13.50;71.30
72883;DHT22;61017;37.812;-122.286;2023-02-28T10:57:41;13.50;71.30
72883;DHT22;61017;37.812;-122.286;2023-02-28T10:59:29;13.50;71.30
72883;DHT22;61017;37.812;-122.286;2023-02-28T11:01:01;13.50;71.20
72883;DHT22;61017;37.812;-122.286;2023-02-28T11:02:36;13.50;71.10
72883;DHT22;61017;37.812;-122.286;2023-02-28T11:05:55;13.50;71.40
72883;DHT22;61017;37.812;-122.286;2023-02-28T11:07:28;13.50;71.50
72883;DHT22;61017;37.812;-122.286;2023-02-28T11:09:24;13.50;71.30
72883;DHT22;61017;37.812;-122.286;2023-02-28T11:10:58;13.50;71.10
72883;DHT22;61017;37.812;-122.286;2023-02-28T11:12:40;13.50;70.70
72883;DHT22;61017;37.812;-122.286;2023-02-28T11:14:24;13.50;71.00
72883;DHT22;61017;37.812;-122.286;2023-02-28T11:15:59;13.50;71.10
72883;DHT22;61017;37.812;-122.286;2023-02-28T11:17:32;13.50;70.80
72883;DHT22;61017;37.812;-122.286;2023-02-28T11:19:06;13.50;71.00
72883;DHT22;61017;37.812;-122.286;2023-02-28T11:22:45;13.50;70.90
72883;DHT22;61017;37.812;-122.286;2023-02-28T11:24:30;13.50;71.30
72883;DHT22;61017;37.812;-122.286;2023-02-28T11:26:06;13.50;71.30
72883;DHT22;61017;37.812;-122.286;2023-02-28T11:27:47;13.50;70.80
72883;DHT22;61017;37.812;-122.286;2023-02-28T11:29:22;13.50;71.10
72883;DHT22;61017;37.812;-122.286;2023-02-28T11:31:03;13.50;71.40
72883;DHT22;61017;37.812;-122.286;2023-02-28T11:32:36;13.50;71.20
72883;DHT22;61017;37.812;-122.286;2023-02-28T11:34:25;13.50;71.50
72883;DHT22;61017;37.812;-122.286;2023-02-28T11:36:16;13.50;71.50
72883;DHT22;61017;37.812;-122.286;2023-02-28T11:37:54;13.50;71.10
72883;DHT22;61017;37.812;-122.286;2023-02-28T11:39:27;13.50;71.60
72883;DHT22;61017;37.812;-122.286;2023-02-28T11:41:33;13.50;71.50
72883;DHT22;61017;37.812;-122.286;2023-02-28T11:45:35;13.50;71.70
72883;DHT22;61017;37.812;-122.286;2023-02-28T11:47:28;13.40;71.60
72883;DHT22;61017;37.812;-122.286;2023-02-28T11:51:28;13.50;71.70
72883;DHT22;61017;37.812;-122.286;2023-02-28T11:53:05;13.50;71.60
72883;DHT22;61017;37.812;-122.286;2023-02-28T11:54:59;13.50;71.70
72883;DHT22;61017;37.812;-122.286;2023-02-28T11:59:04;13.50;71.70
72883;DHT22;61017;37.812;-122.286;2023-02-28T12:02:52;13.50;71.70
72883;DHT22;61017;37.812;-122.286;2023-02-28T12:04:37;13.40;71.70
72883;DHT22;61017;37.812;-122.286;2023-02-28T12:06:36;13.40;71.80
72883;DHT22;61017;37.812;-122.286;2023-02-28T12:13:35;13.40;71.90
72883;DHT22;61017;37.812;-122.286;2023-02-28T12:15:35;13.40;72.80
72883;DHT22;61017;37.812;-122.286;2023-02-28T12:19:07;13.40;72.10
72883;DHT22;61017;37.812;-122.286;2023-02-28T12:22:32;13.40;72.10
72883;DHT22;61017;37.812;-122.286;2023-02-28T12:24:27;13.40;72.20
72883;DHT22;61017;37.812;-122.286;2023-02-28T12:27:52;13.40;72.40
72883;DHT22;61017;37.812;-122.286;2023-02-28T12:30:09;13.30;72.40
72883;DHT22;61017;37.812;-122.286;2023-02-28T12:31:26;13.40;72.50
72883;DHT22;61017;37.812;-122.286;2023-02-28T12:34:41;13.40;72.50
72883;DHT22;61017;37.812;-122.286;2023-02-28T12:36:17;13.40;72.50
72883;DHT22;61017;37.812;-122.286;2023-02-28T12:39:46;13.40;72.50
72883;DHT22;61017;37.812;-122.286;2023-02-28T12:41:22;13.40;72.50
72883;DHT22;61017;37.812;-122.286;2023-02-28T12:43:02;13.40;72.40
72883;DHT22;61017;37.812;-122.286;2023-02-28T12:44:52;13.40;72.50
72883;DHT22;61017;37.812;-122.286;2023-02-28T12:46:48;13.40;72.50
72883;DHT22;61017;37.812;-122.286;2023-02-28T12:50:12;13.40;72.60
72883;DHT22;61017;37.812;-122.286;2023-02-28T12:51:44;13.40;72.60
72883;DHT22;61017;37.812;-122.286;2023-02-28T12:53:28;13.40;72.60
72883;DHT22;61017;37.812;-122.286;2023-02-28T12:57:11;13.40;72.60
72883;DHT22;61017;37.812;-122.286;2023-02-28T12:58:51;13.40;72.60
72883;DHT22;61017;37.812;-122.286;2023-02-28T13:00:32;13.40;72.60
72883;DHT22;61017;37.812;-122.286;2023-02-28T13:08:27;13.40;72.70
72883;DHT22;61017;37.812;-122.286;2023-02-28T13:10:08;13.40;72.70
72883;DHT22;61017;37.812;-122.286;2023-02-28T13:11:49;13.40;72.80
72883;DHT22;61017;37.812;-122.286;2023-02-28T13:13:26;13.40;72.90
72883;DHT22;61017;37.812;-122.286;2023-02-28T13:15:07;13.30;73.00
72883;DHT22;61017;37.812;-122.286;2023-02-28T13:17:14;13.30;73.10
72883;DHT22;61017;37.812;-122.286;2023-02-28T13:18:45;13.30;73.20
72883;DHT22;61017;37.812;-122.286;2023-02-28T13:20:29;13.30;73.20
72883;DHT22;61017;37.812;-122.286;2023-02-28T13:22:03;13.30;73.30
72883;DHT22;61017;37.812;-122.286;2023-02-28T13:35:37;13.30;73.50
72883;DHT22;61017;37.812;-122.286;2023-02-28T13:39:01;13.30;73.60
72883;DHT22;61017;37.812;-122.286;2023-02-28T13:40:33;13.30;73.60
72883;DHT22;61017;37.812;-122.286;2023-02-28T13:44:21;13.30;73.70
72883;DHT22;61017;37.812;-122.286;2023-02-28T13:46:12;13.30;73.80
72883;DHT22;61017;37.812;-122.286;2023-02-28T13:47:51;13.30;73.50
72883;DHT22;61017;37.812;-122.286;2023-02-28T13:50:54;13.40;73.70
72883;DHT22;61017;37.812;-122.286;2023-02-28T13:52:26;13.40;73.70
72883;DHT22;61017;37.812;-122.286;2023-02-28T13:54:06;13.40;73.60